sensor_id;sensor_type;location;lat;lon;timestamp;pressure;altitude;pressure_sealevel;temperature;humidity
73085;BME280;62974;49.460;10.892;2023-05-21T00:00:50;97524.25;;;17.30;76.96
73085;BME280;62974;49.460;10.892;2023-05-21T00:03:19;97530.22;;;16.94;80.61
73085;BME280;62974;49.460;10.892;2023-05-21T00:05:46;97529.69;;;17.30;75.89
73085;BME280;62974;49.460;10.892;2023-05-21T00:08:15;97525.81;;;17.26;76.18
73085;BME280;62974;49.460;10.892;2023-05-21T00:10:43;97528.16;;;17.01;79.62
73085;BME280;62974;49.460;10.892;2023-05-21T00:13:11;97528.81;;;16.92;80.85
73085;BME280;62974;49.460;10.892;2023-05-21T00:15:39;97529.16;;;16.95;80.44
73085;BME280;62974;49.460;10.892;2023-05-21T00:18:07;97521.97;;;16.89;80.23
73085;BME280;62974;49.460;10.892;2023-05-21T00:20:34;97520.44;;;16.60;82.52
73085;BME280;62974;49.460;10.892;2023-05-21T00:23:02;97517.72;;;16.60;83.25
73085;BME280;62974;49.460;10.892;2023-05-21T00:25:30;97509.97;;;16.68;81.81
73085;BME280;62974;49.460;10.892;2023-05-21T00:27:57;97515.34;;;16.63;82.95
73085;BME280;62974;49.460;10.892;2023-05-21T00:30:26;97505.16;;;16.70;81.91
73085;BME280;62974;49.460;10.892;2023-05-21T00:32:54;97501.44;;;16.93;79.92
73085;BME280;62974;49.460;10.892;2023-05-21T00:35:24;97508.59;;;16.66;82.42
73085;BME280;62974;49.460;10.892;2023-05-21T00:37:52;97505.94;;;16.54;82.60
73085;BME280;62974;49.460;10.892;2023-05-21T00:40:19;97504.31;;;16.70;81.60
73085;BME280;62974;49.460;10.892;2023-05-21T00:42:47;97498.41;;;16.89;79.30
73085;BME280;62974;49.460;10.892;2023-05-21T00:45:15;97499.13;;;16.68;81.55
73085;BME280;62974;49.460;10.892;2023-05-21T00:47:44;97494.31;;;16.87;79.77
73085;BME280;62974;49.460;10.892;2023-05-21T00:50:14;97488.19;;;16.97;77.97
73085;BME280;62974;49.460;10.892;2023-05-21T00:52:42;97490.03;;;16.91;78.24
73085;BME280;62974;49.460;10.892;2023-05-21T00:55:11;97482.94;;;17.07;76.59
73085;BME280;62974;49.460;10.892;2023-05-21T00:57:38;97493.16;;;17.00;77.96
73085;BME280;62974;49.460;10.892;2023-05-21T01:00:08;97499.41;;;16.83;80.44
73085;BME280;62974;49.460;10.892;2023-05-21T01:02:36;97488.69;;;16.94;77.48
73085;BME280;62974;49.460;10.892;2023-05-21T01:05:06;97488.06;;;16.86;77.87
73085;BME280;62974;49.460;10.892;2023-05-21T01:07:34;97501.44;;;16.76;80.91
73085;BME280;62974;49.460;10.892;2023-05-21T01:10:05;97500.63;;;16.76;79.90
73085;BME280;62974;49.460;10.892;2023-05-21T01:12:34;97497.16;;;16.80;79.99
73085;BME280;62974;49.460;10.892;2023-05-21T01:15:06;97489.13;;;16.85;78.09
73085;BME280;62974;49.460;10.892;2023-05-21T01:17:37;97490.25;;;16.89;77.96
73085;BME280;62974;49.460;10.892;2023-05-21T01:20:07;97493.06;;;16.61;80.71
73085;BME280;62974;49.460;10.892;2023-05-21T01:22:40;97491.00;;;16.68;79.71
73085;BME280;62974;49.460;10.892;2023-05-21T01:25:10;97516.00;;;16.25;84.90
73085;BME280;62974;49.460;10.892;2023-05-21T01:27:38;97497.88;;;16.42;82.59
73085;BME280;62974;49.460;10.892;2023-05-21T01:30:06;97497.06;;;16.42;83.00
73085;BME280;62974;49.460;10.892;2023-05-21T01:32:39;97499.84;;;16.02;86.92
73085;BME280;62974;49.460;10.892;2023-05-21T01:35:12;97492.81;;;16.18;85.80
73085;BME280;62974;49.460;10.892;2023-05-21T01:37:44;97498.28;;;16.34;84.64
73085;BME280;62974;49.460;10.892;2023-05-21T01:40:18;97492.03;;;16.34;82.85
73085;BME280;62974;49.460;10.892;2023-05-21T01:42:50;97485.56;;;16.52;80.47
73085;BME280;62974;49.460;10.892;2023-05-21T01:45:18;97507.25;;;15.78;88.46
73085;BME280;62974;49.460;10.892;2023-05-21T01:47:50;97498.84;;;15.91;88.32
73085;BME280;62974;49.460;10.892;2023-05-21T01:50:21;97490.38;;;16.16;85.40
73085;BME280;62974;49.460;10.892;2023-05-21T01:52:50;97484.44;;;16.03;86.78
73085;BME280;62974;49.460;10.892;2023-05-21T01:55:19;97490.28;;;16.11;85.91
73085;BME280;62974;49.460;10.892;2023-05-21T01:57:50;97486.00;;;16.15;85.30
73085;BME280;62974;49.460;10.892;2023-05-21T02:00:19;97497.31;;;15.95;87.34
73085;BME280;62974;49.460;10.892;2023-05-21T02:02:47;97490.47;;;15.93;87.34
73085;BME280;62974;49.460;10.892;2023-05-21T02:05:15;97496.81;;;15.98;86.42
73085;BME280;62974;49.460;10.892;2023-05-21T02:07:43;97492.72;;;16.13;85.13
73085;BME280;62974;49.460;10.892;2023-05-21T02:10:12;97488.84;;;16.09;85.66
73085;BME280;62974;49.460;10.892;2023-05-21T02:12:41;97488.53;;;16.05;86.29
73085;BME280;62974;49.460;10.892;2023-05-21T02:15:09;97475.91;;;16.11;85.10
73085;BME280;62974;49.460;10.892;2023-05-21T02:17:37;97490.34;;;16.00;86.55
73085;BME280;62974;49.460;10.892;2023-05-21T02:20:05;97483.25;;;15.98;86.46
73085;BME280;62974;49.460;10.892;2023-05-21T02:22:37;97488.78;;;15.75;87.80
73085;BME280;62974;49.460;10.892;2023-05-21T02:25:06;97486.81;;;15.99;87.01
73085;BME280;62974;49.460;10.892;2023-05-21T02:27:34;97482.44;;;15.98;86.90
73085;BME280;62974;49.460;10.892;2023-05-21T02:30:05;97484.47;;;15.91;87.13
73085;BME280;62974;49.460;10.892;2023-05-21T02:32:34;97481.16;;;15.89;86.65
73085;BME280;62974;49.460;10.892;2023-05-21T02:35:03;97468.72;;;16.05;85.06
73085;BME280;62974;49.460;10.892;2023-05-21T02:37:31;97478.47;;;15.89;86.95
73085;BME280;62974;49.460;10.892;2023-05-21T02:40:00;97466.94;;;16.10;83.71
73085;BME280;62974;49.460;10.892;2023-05-21T02:42:29;97478.19;;;15.74;88.55
73085;BME280;62974;49.460;10.892;2023-05-21T02:44:56;97467.56;;;16.01;85.81
73085;BME280;62974;49.460;10.892;2023-05-21T02:47:25;97479.16;;;15.68;89.23
73085;BME280;62974;49.460;10.892;2023-05-21T02:49:53;97474.09;;;15.71;89.23
73085;BME280;62974;49.460;10.892;2023-05-21T02:52:21;97466.19;;;15.98;85.91
73085;BME280;62974;49.460;10.892;2023-05-21T02:54:49;97478.78;;;15.76;88.04
73085;BME280;62974;49.460;10.892;2023-05-21T02:57:16;97478.34;;;15.67;89.42
73085;BME280;62974;49.460;10.892;2023-05-21T02:59:44;97476.44;;;15.68;89.83
73085;BME280;62974;49.460;10.892;2023-05-21T03:02:12;97476.81;;;15.60;90.83
73085;BME280;62974;49.460;10.892;2023-05-21T03:04:41;97471.22;;;15.78;88.42
73085;BME280;62974;49.460;10.892;2023-05-21T03:07:11;97471.94;;;15.73;89.31
73085;BME280;62974;49.460;10.892;2023-05-21T03:09:40;97472.97;;;15.84;88.28
73085;BME280;62974;49.460;10.892;2023-05-21T03:12:08;97471.59;;;15.70;88.95
73085;BME280;62974;49.460;10.892;2023-05-21T03:14:36;97468.09;;;15.58;90.80
73085;BME280;62974;49.460;10.892;2023-05-21T03:17:04;97472.28;;;15.77;88.67
73085;BME280;62974;49.460;10.892;2023-05-21T03:19:33;97472.75;;;15.74;90.06
73085;BME280;62974;49.460;10.892;2023-05-21T03:22:03;97474.31;;;15.70;89.99
73085;BME280;62974;49.460;10.892;2023-05-21T03:24:31;97470.25;;;15.84;88.46
73085;BME280;62974;49.460;10.892;2023-05-21T03:26:59;97475.09;;;15.82;89.36
73085;BME280;62974;49.460;10.892;2023-05-21T03:29:27;97472.03;;;15.78;89.30
73085;BME280;62974;49.460;10.892;2023-05-21T03:31:55;97476.63;;;15.78;89.75
73085;BME280;62974;49.460;10.892;2023-05-21T03:34:23;97472.94;;;15.95;86.69
73085;BME280;62974;49.460;10.892;2023-05-21T03:36:50;97481.47;;;15.76;90.07
73085;BME280;62974;49.460;10.892;2023-05-21T03:39:19;97481.94;;;15.73;89.37
73085;BME280;62974;49.460;10.892;2023-05-21T03:41:47;97491.56;;;15.40;93.54
73085;BME280;62974;49.460;10.892;2023-05-21T03:44:14;97484.47;;;15.63;91.42
73085;BME280;62974;49.460;10.892;2023-05-21T03:46:42;97482.97;;;15.55;92.63
73085;BME280;62974;49.460;10.892;2023-05-21T03:49:10;97480.97;;;15.50;92.49
73085;BME280;62974;49.460;10.892;2023-05-21T03:51:38;97485.31;;;15.52;92.89
73085;BME280;62974;49.460;10.892;2023-05-21T03:54:05;97486.13;;;15.64;92.17
73085;BME280;62974;49.460;10.892;2023-05-21T03:56:34;97487.44;;;15.49;92.58
73085;BME280;62974;49.460;10.892;2023-05-21T03:59:01;97488.56;;;15.65;91.67
73085;BME280;62974;49.460;10.892;2023-05-21T04:01:29;97494.50;;;15.39;94.61
73085;BME280;62974;49.460;10.892;2023-05-21T04:03:58;97493.53;;;15.68;91.78
73085;BME280;62974;49.460;10.892;2023-05-21T04:06:26;97481.47;;;15.76;90.13
73085;BME280;62974;49.460;10.892;2023-05-21T04:08:53;97486.94;;;15.64;92.33
73085;BME280;62974;49.460;10.892;2023-05-21T04:11:21;97489.53;;;15.47;94.27
73085;BME280;62974;49.460;10.892;2023-05-21T04:13:50;97485.25;;;15.75;91.74
73085;BME280;62974;49.460;10.892;2023-05-21T04:16:17;97486.41;;;15.79;90.79
73085;BME280;62974;49.460;10.892;2023-05-21T04:18:45;97488.03;;;15.52;94.88
73085;BME280;62974;49.460;10.892;2023-05-21T04:21:13;97494.34;;;15.45;95.45
73085;BME280;62974;49.460;10.892;2023-05-21T04:23:40;97490.38;;;15.48;95.49
73085;BME280;62974;49.460;10.892;2023-05-21T04:26:08;97499.78;;;15.34;97.62
73085;BME280;62974;49.460;10.892;2023-05-21T04:28:37;97500.97;;;15.38;97.39
73085;BME280;62974;49.460;10.892;2023-05-21T04:31:08;97499.06;;;15.38;97.63
73085;BME280;62974;49.460;10.892;2023-05-21T04:33:38;97499.09;;;15.50;96.43
73085;BME280;62974;49.460;10.892;2023-05-21T04:36:07;97489.16;;;15.67;94.53
73085;BME280;62974;49.460;10.892;2023-05-21T04:38:36;97495.41;;;15.68;95.39
73085;BME280;62974;49.460;10.892;2023-05-21T04:41:07;97501.28;;;15.65;96.65
73085;BME280;62974;49.460;10.892;2023-05-21T04:43:36;97505.75;;;15.71;95.11
73085;BME280;62974;49.460;10.892;2023-05-21T04:46:03;97513.63;;;15.49;97.74
73085;BME280;62974;49.460;10.892;2023-05-21T04:48:32;97513.56;;;15.44;99.40
73085;BME280;62974;49.460;10.892;2023-05-21T04:51:00;97500.84;;;15.56;98.01
73085;BME280;62974;49.460;10.892;2023-05-21T04:53:31;97506.69;;;15.65;96.80
73085;BME280;62974;49.460;10.892;2023-05-21T04:55:59;97502.22;;;15.70;96.34
73085;BME280;62974;49.460;10.892;2023-05-21T04:58:26;97505.88;;;15.64;97.33
73085;BME280;62974;49.460;10.892;2023-05-21T05:00:54;97503.03;;;15.71;97.12
73085;BME280;62974;49.460;10.892;2023-05-21T05:03:21;97509.13;;;15.78;96.86
73085;BME280;62974;49.460;10.892;2023-05-21T05:05:50;97503.84;;;15.71;97.53
73085;BME280;62974;49.460;10.892;2023-05-21T05:08:19;97512.81;;;15.72;97.10
73085;BME280;62974;49.460;10.892;2023-05-21T05:10:46;97504.44;;;16.02;92.64
73085;BME280;62974;49.460;10.892;2023-05-21T05:13:14;97503.81;;;15.83;96.25
73085;BME280;62974;49.460;10.892;2023-05-21T05:15:42;97512.63;;;15.90;96.36
73085;BME280;62974;49.460;10.892;2023-05-21T05:18:09;97514.81;;;15.76;97.46
73085;BME280;62974;49.460;10.892;2023-05-21T05:20:37;97515.31;;;15.90;97.31
73085;BME280;62974;49.460;10.892;2023-05-21T05:23:06;97520.63;;;15.85;98.44
73085;BME280;62974;49.460;10.892;2023-05-21T05:25:33;97510.50;;;15.92;97.41
73085;BME280;62974;49.460;10.892;2023-05-21T05:28:01;97512.22;;;15.98;95.65
73085;BME280;62974;49.460;10.892;2023-05-21T05:30:28;97515.81;;;15.87;97.43
73085;BME280;62974;49.460;10.892;2023-05-21T05:32:56;97515.47;;;16.12;94.03
73085;BME280;62974;49.460;10.892;2023-05-21T05:35:23;97510.44;;;16.04;94.51
73085;BME280;62974;49.460;10.892;2023-05-21T05:37:51;97511.94;;;16.11;95.39
73085;BME280;62974;49.460;10.892;2023-05-21T05:40:20;97509.47;;;16.10;95.42
73085;BME280;62974;49.460;10.892;2023-05-21T05:42:47;97520.69;;;16.02;98.46
73085;BME280;62974;49.460;10.892;2023-05-21T05:45:18;97508.34;;;16.22;96.00
73085;BME280;62974;49.460;10.892;2023-05-21T05:47:45;97505.16;;;16.25;95.52
73085;BME280;62974;49.460;10.892;2023-05-21T05:50:13;97510.19;;;16.33;96.35
73085;BME280;62974;49.460;10.892;2023-05-21T05:52:40;97507.78;;;16.37;96.20
73085;BME280;62974;49.460;10.892;2023-05-21T05:55:09;97504.34;;;16.41;94.86
73085;BME280;62974;49.460;10.892;2023-05-21T05:57:38;97507.56;;;16.38;96.72
73085;BME280;62974;49.460;10.892;2023-05-21T06:00:09;97507.13;;;16.30;96.13
73085;BME280;62974;49.460;10.892;2023-05-21T06:02:37;97510.44;;;16.32;96.57
73085;BME280;62974;49.460;10.892;2023-05-21T06:05:05;97511.72;;;16.29;95.11
73085;BME280;62974;49.460;10.892;2023-05-21T06:07:36;97504.34;;;16.41;96.61
73085;BME280;62974;49.460;10.892;2023-05-21T06:10:05;97507.34;;;16.40;97.12
73085;BME280;62974;49.460;10.892;2023-05-21T06:12:32;97499.59;;;16.49;94.10
73085;BME280;62974;49.460;10.892;2023-05-21T06:15:01;97503.78;;;16.56;93.85
73085;BME280;62974;49.460;10.892;2023-05-21T06:17:29;97505.88;;;16.66;94.00
73085;BME280;62974;49.460;10.892;2023-05-21T06:19:57;97502.22;;;16.72;93.00
73085;BME280;62974;49.460;10.892;2023-05-21T06:22:24;97499.97;;;16.69;93.43
73085;BME280;62974;49.460;10.892;2023-05-21T06:24:52;97503.91;;;16.78;94.21
73085;BME280;62974;49.460;10.892;2023-05-21T06:27:19;97491.91;;;16.90;91.12
73085;BME280;62974;49.460;10.892;2023-05-21T06:29:47;97491.22;;;17.00;90.16
73085;BME280;62974;49.460;10.892;2023-05-21T06:32:16;97488.44;;;17.12;89.91
73085;BME280;62974;49.460;10.892;2023-05-21T06:34:43;97485.78;;;17.17;92.10
73085;BME280;62974;49.460;10.892;2023-05-21T06:37:11;97483.22;;;17.27;89.80
73085;BME280;62974;49.460;10.892;2023-05-21T06:39:38;97487.19;;;17.19;88.82
73085;BME280;62974;49.460;10.892;2023-05-21T06:42:06;97485.31;;;17.42;87.71
73085;BME280;62974;49.460;10.892;2023-05-21T06:44:36;97487.28;;;17.46;88.76
73085;BME280;62974;49.460;10.892;2023-05-21T06:47:04;97490.94;;;17.57;89.55
73085;BME280;62974;49.460;10.892;2023-05-21T06:49:33;97488.47;;;17.55;87.23
73085;BME280;62974;49.460;10.892;2023-05-21T06:52:00;97482.75;;;17.73;87.84
73085;BME280;62974;49.460;10.892;2023-05-21T06:54:28;97483.56;;;17.74;86.19
73085;BME280;62974;49.460;10.892;2023-05-21T06:56:57;97476.63;;;18.10;86.27
73085;BME280;62974;49.460;10.892;2023-05-21T06:59:24;97471.06;;;18.00;83.63
73085;BME280;62974;49.460;10.892;2023-05-21T07:01:52;97471.94;;;17.78;84.00
73085;BME280;62974;49.460;10.892;2023-05-21T07:04:19;97476.78;;;17.98;83.67
73085;BME280;62974;49.460;10.892;2023-05-21T07:06:48;97470.94;;;18.11;82.41
73085;BME280;62974;49.460;10.892;2023-05-21T07:09:17;97473.19;;;18.19;84.13
73085;BME280;62974;49.460;10.892;2023-05-21T07:11:45;97474.38;;;18.02;81.30
73085;BME280;62974;49.460;10.892;2023-05-21T07:14:12;97474.06;;;18.25;82.30
73085;BME280;62974;49.460;10.892;2023-05-21T07:16:40;97476.25;;;18.28;79.55
73085;BME280;62974;49.460;10.892;2023-05-21T07:19:07;97480.06;;;18.27;79.88
73085;BME280;62974;49.460;10.892;2023-05-21T07:21:35;97489.75;;;18.45;80.77
73085;BME280;62974;49.460;10.892;2023-05-21T07:24:04;97489.19;;;18.43;81.09
73085;BME280;62974;49.460;10.892;2023-05-21T07:26:32;97485.34;;;18.39;79.88
73085;BME280;62974;49.460;10.892;2023-05-21T07:28:59;97489.22;;;18.48;81.02
73085;BME280;62974;49.460;10.892;2023-05-21T07:31:27;97487.78;;;18.35;79.82
73085;BME280;62974;49.460;10.892;2023-05-21T07:33:55;97488.47;;;18.52;77.16
73085;BME280;62974;49.460;10.892;2023-05-21T07:36:22;97477.59;;;18.52;77.90
73085;BME280;62974;49.460;10.892;2023-05-21T07:38:51;97475.28;;;18.66;76.76
73085;BME280;62974;49.460;10.892;2023-05-21T07:41:20;97476.34;;;18.65;77.54
73085;BME280;62974;49.460;10.892;2023-05-21T07:43:48;97481.72;;;18.55;77.00
73085;BME280;62974;49.460;10.892;2023-05-21T07:46:15;97477.53;;;18.74;79.12
73085;BME280;62974;49.460;10.892;2023-05-21T07:48:43;97484.78;;;19.00;75.72
73085;BME280;62974;49.460;10.892;2023-05-21T07:51:11;97477.66;;;18.94;75.39
73085;BME280;62974;49.460;10.892;2023-05-21T07:53:39;97479.22;;;18.85;76.47
73085;BME280;62974;49.460;10.892;2023-05-21T07:56:07;97474.84;;;18.84;75.34
73085;BME280;62974;49.460;10.892;2023-05-21T07:58:36;97475.44;;;18.91;75.33
73085;BME280;62974;49.460;10.892;2023-05-21T08:01:04;97470.44;;;19.10;73.77
73085;BME280;62974;49.460;10.892;2023-05-21T08:03:32;97468.44;;;19.00;73.05
73085;BME280;62974;49.460;10.892;2023-05-21T08:06:00;97470.38;;;19.05;72.71
73085;BME280;62974;49.460;10.892;2023-05-21T08:08:28;97469.88;;;19.13;72.05
73085;BME280;62974;49.460;10.892;2023-05-21T08:10:56;97464.91;;;19.00;70.79
73085;BME280;62974;49.460;10.892;2023-05-21T08:13:23;97476.19;;;19.18;71.77
73085;BME280;62974;49.460;10.892;2023-05-21T08:15:52;97467.91;;;19.03;70.52
73085;BME280;62974;49.460;10.892;2023-05-21T08:18:20;97466.53;;;19.01;70.77
73085;BME280;62974;49.460;10.892;2023-05-21T08:20:49;97450.50;;;19.51;68.65
73085;BME280;62974;49.460;10.892;2023-05-21T08:23:16;97462.03;;;19.79;71.11
73085;BME280;62974;49.460;10.892;2023-05-21T08:25:44;97457.56;;;19.47;69.18
73085;BME280;62974;49.460;10.892;2023-05-21T08:28:12;97453.50;;;19.55;67.30
73085;BME280;62974;49.460;10.892;2023-05-21T08:30:39;97465.47;;;19.49;68.96
73085;BME280;62974;49.460;10.892;2023-05-21T08:33:08;97461.09;;;19.43;67.15
73085;BME280;62974;49.460;10.892;2023-05-21T08:35:36;97458.16;;;19.59;66.75
73085;BME280;62974;49.460;10.892;2023-05-21T08:38:04;97465.38;;;19.96;67.95
73085;BME280;62974;49.460;10.892;2023-05-21T08:40:32;97444.66;;;19.95;64.99
73085;BME280;62974;49.460;10.892;2023-05-21T08:43:00;97455.78;;;19.73;67.04
73085;BME280;62974;49.460;10.892;2023-05-21T08:45:33;97456.03;;;19.72;67.70
73085;BME280;62974;49.460;10.892;2023-05-21T08:48:04;97449.31;;;20.14;64.29
73085;BME280;62974;49.460;10.892;2023-05-21T08:50:34;97447.22;;;20.37;63.98
73085;BME280;62974;49.460;10.892;2023-05-21T08:53:01;97450.41;;;20.18;64.55
73085;BME280;62974;49.460;10.892;2023-05-21T08:55:38;97453.75;;;20.36;64.84
73085;BME280;62974;49.460;10.892;2023-05-21T08:58:08;97445.59;;;20.41;63.82
73085;BME280;62974;49.460;10.892;2023-05-21T09:00:36;97449.97;;;20.42;61.68
73085;BME280;62974;49.460;10.892;2023-05-21T09:03:04;97459.13;;;20.10;62.30
73085;BME280;62974;49.460;10.892;2023-05-21T09:05:35;97448.31;;;20.51;62.12
73085;BME280;62974;49.460;10.892;2023-05-21T09:08:06;97453.44;;;20.27;64.22
73085;BME280;62974;49.460;10.892;2023-05-21T09:10:40;97453.47;;;20.83;63.53
73085;BME280;62974;49.460;10.892;2023-05-21T09:13:09;97445.03;;;20.44;62.90
73085;BME280;62974;49.460;10.892;2023-05-21T09:15:36;97441.75;;;20.82;60.34
73085;BME280;62974;49.460;10.892;2023-05-21T09:18:04;97447.16;;;21.23;61.07
73085;BME280;62974;49.460;10.892;2023-05-21T09:20:32;97448.56;;;20.75;61.25
73085;BME280;62974;49.460;10.892;2023-05-21T09:23:03;97448.28;;;21.12;61.73
73085;BME280;62974;49.460;10.892;2023-05-21T09:25:32;97445.38;;;21.67;61.38
73085;BME280;62974;49.460;10.892;2023-05-21T09:27:59;97452.06;;;21.36;61.28
73085;BME280;62974;49.460;10.892;2023-05-21T09:30:27;97451.56;;;21.14;59.10
73085;BME280;62974;49.460;10.892;2023-05-21T09:32:58;97444.72;;;21.21;58.49
73085;BME280;62974;49.460;10.892;2023-05-21T09:35:26;97457.03;;;21.14;60.90
73085;BME280;62974;49.460;10.892;2023-05-21T09:37:54;97456.09;;;21.53;58.09
73085;BME280;62974;49.460;10.892;2023-05-21T09:40:23;97445.63;;;21.76;57.71
73085;BME280;62974;49.460;10.892;2023-05-21T09:42:52;97446.63;;;21.90;56.40
73085;BME280;62974;49.460;10.892;2023-05-21T09:45:22;97451.00;;;22.01;56.08
73085;BME280;62974;49.460;10.892;2023-05-21T09:47:51;97454.91;;;21.70;59.26
73085;BME280;62974;49.460;10.892;2023-05-21T09:50:20;97463.19;;;21.60;58.96
73085;BME280;62974;49.460;10.892;2023-05-21T09:52:49;97461.47;;;21.74;57.15
73085;BME280;62974;49.460;10.892;2023-05-21T09:55:22;97456.94;;;21.44;57.40
73085;BME280;62974;49.460;10.892;2023-05-21T09:57:51;97460.34;;;21.80;58.69
73085;BME280;62974;49.460;10.892;2023-05-21T10:00:22;97454.25;;;21.98;56.41
73085;BME280;62974;49.460;10.892;2023-05-21T10:02:53;97458.31;;;22.06;56.18
73085;BME280;62974;49.460;10.892;2023-05-21T10:05:25;97454.22;;;22.08;55.37
73085;BME280;62974;49.460;10.892;2023-05-21T10:07:58;97454.88;;;22.34;55.27
73085;BME280;62974;49.460;10.892;2023-05-21T10:10:30;97455.44;;;22.31;55.28
73085;BME280;62974;49.460;10.892;2023-05-21T10:13:03;97464.09;;;22.43;56.03
73085;BME280;62974;49.460;10.892;2023-05-21T10:15:37;97460.91;;;22.31;56.43
73085;BME280;62974;49.460;10.892;2023-05-21T10:18:05;97460.53;;;22.09;58.99
73085;BME280;62974;49.460;10.892;2023-05-21T10:20:33;97472.81;;;22.11;57.96
73085;BME280;62974;49.460;10.892;2023-05-21T10:23:02;97458.41;;;21.95;57.16
73085;BME280;62974;49.460;10.892;2023-05-21T10:25:31;97452.19;;;22.63;53.91
73085;BME280;62974;49.460;10.892;2023-05-21T10:28:00;97449.09;;;22.40;53.83
73085;BME280;62974;49.460;10.892;2023-05-21T10:30:28;97454.25;;;22.42;53.95
73085;BME280;62974;49.460;10.892;2023-05-21T10:32:57;97456.13;;;22.13;56.75
73085;BME280;62974;49.460;10.892;2023-05-21T10:35:26;97457.06;;;21.93;56.89
73085;BME280;62974;49.460;10.892;2023-05-21T10:37:55;97439.09;;;22.21;52.18
73085;BME280;62974;49.460;10.892;2023-05-21T10:40:23;97439.47;;;22.09;56.22
73085;BME280;62974;49.460;10.892;2023-05-21T10:43:07;97444.81;;;22.24;56.36
73085;BME280;62974;49.460;10.892;2023-05-21T10:45:49;97448.25;;;22.01;56.97
73085;BME280;62974;49.460;10.892;2023-05-21T10:48:30;97451.75;;;22.07;56.03
73085;BME280;62974;49.460;10.892;2023-05-21T10:51:09;97439.97;;;22.11;54.82
73085;BME280;62974;49.460;10.892;2023-05-21T10:53:50;97451.03;;;22.35;57.77
73085;BME280;62974;49.460;10.892;2023-05-21T10:56:24;97451.16;;;22.15;58.21
73085;BME280;62974;49.460;10.892;2023-05-21T10:59:06;97453.09;;;22.14;57.44
73085;BME280;62974;49.460;10.892;2023-05-21T11:01:38;97442.91;;;22.25;56.30
73085;BME280;62974;49.460;10.892;2023-05-21T11:04:07;97445.69;;;22.15;57.01
73085;BME280;62974;49.460;10.892;2023-05-21T11:06:35;97441.66;;;22.02;56.88
73085;BME280;62974;49.460;10.892;2023-05-21T11:09:10;97439.66;;;22.18;55.03
73085;BME280;62974;49.460;10.892;2023-05-21T11:11:39;97439.75;;;22.41;55.71
73085;BME280;62974;49.460;10.892;2023-05-21T11:14:30;97446.28;;;22.45;57.76
73085;BME280;62974;49.460;10.892;2023-05-21T11:17:02;97451.88;;;22.30;59.92
73085;BME280;62974;49.460;10.892;2023-05-21T11:19:34;97462.56;;;22.27;61.91
73085;BME280;62974;49.460;10.892;2023-05-21T11:22:07;97440.94;;;22.30;57.65
73085;BME280;62974;49.460;10.892;2023-05-21T11:24:39;97439.44;;;22.48;56.67
73085;BME280;62974;49.460;10.892;2023-05-21T11:27:07;97439.16;;;22.49;56.00
73085;BME280;62974;49.460;10.892;2023-05-21T11:29:38;97439.75;;;22.41;57.23
73085;BME280;62974;49.460;10.892;2023-05-21T11:32:07;97428.13;;;22.60;54.98
73085;BME280;62974;49.460;10.892;2023-05-21T11:34:36;97425.84;;;22.77;55.09
73085;BME280;62974;49.460;10.892;2023-05-21T11:37:24;97435.53;;;22.59;55.34
73085;BME280;62974;49.460;10.892;2023-05-21T11:39:55;97438.53;;;22.97;59.59
73085;BME280;62974;49.460;10.892;2023-05-21T11:42:30;97424.91;;;22.53;56.37
73085;BME280;62974;49.460;10.892;2023-05-21T11:45:00;97428.91;;;22.31;57.31
73085;BME280;62974;49.460;10.892;2023-05-21T11:47:29;97420.41;;;22.67;55.21
73085;BME280;62974;49.460;10.892;2023-05-21T11:49:59;97421.06;;;22.54;55.69
73085;BME280;62974;49.460;10.892;2023-05-21T11:52:27;97425.25;;;22.80;56.26
73085;BME280;62974;49.460;10.892;2023-05-21T11:54:55;97426.72;;;22.62;55.51
73085;BME280;62974;49.460;10.892;2023-05-21T11:57:26;97423.34;;;22.80;53.26
73085;BME280;62974;49.460;10.892;2023-05-21T11:59:56;97417.28;;;22.83;54.40
73085;BME280;62974;49.460;10.892;2023-05-21T12:02:30;97421.44;;;22.76;56.84
73085;BME280;62974;49.460;10.892;2023-05-21T12:04:58;97429.53;;;22.57;58.79
73085;BME280;62974;49.460;10.892;2023-05-21T12:07:27;97427.66;;;22.53;58.81
73085;BME280;62974;49.460;10.892;2023-05-21T12:09:55;97418.75;;;22.66;57.99
73085;BME280;62974;49.460;10.892;2023-05-21T12:12:24;97408.69;;;23.19;54.14
73085;BME280;62974;49.460;10.892;2023-05-21T12:15:08;97414.59;;;23.02;54.85
73085;BME280;62974;49.460;10.892;2023-05-21T12:17:39;97404.47;;;23.03;55.70
73085;BME280;62974;49.460;10.892;2023-05-21T12:20:08;97413.97;;;23.10;57.66
73085;BME280;62974;49.460;10.892;2023-05-21T12:22:39;97405.44;;;23.17;52.32
73085;BME280;62974;49.460;10.892;2023-05-21T12:25:08;97409.13;;;23.02;54.60
73085;BME280;62974;49.460;10.892;2023-05-21T12:27:37;97404.84;;;23.20;54.99
73085;BME280;62974;49.460;10.892;2023-05-21T12:30:07;97383.13;;;23.71;50.48
73085;BME280;62974;49.460;10.892;2023-05-21T12:32:41;97388.06;;;23.69;52.15
73085;BME280;62974;49.460;10.892;2023-05-21T12:35:19;97381.13;;;24.14;45.90
73085;BME280;62974;49.460;10.892;2023-05-21T12:37:47;97397.09;;;24.30;46.69
73085;BME280;62974;49.460;10.892;2023-05-21T12:40:16;97418.34;;;24.01;51.03
73085;BME280;62974;49.460;10.892;2023-05-21T12:42:44;97402.50;;;24.17;50.25
73085;BME280;62974;49.460;10.892;2023-05-21T12:45:12;97393.16;;;24.88;44.19
73085;BME280;62974;49.460;10.892;2023-05-21T12:47:46;97407.38;;;24.01;46.71
73085;BME280;62974;49.460;10.892;2023-05-21T12:50:19;97417.53;;;24.01;48.32
73085;BME280;62974;49.460;10.892;2023-05-21T12:52:47;97405.50;;;24.20;47.27
73085;BME280;62974;49.460;10.892;2023-05-21T12:55:15;97419.81;;;23.75;47.05
73085;BME280;62974;49.460;10.892;2023-05-21T12:57:43;97429.28;;;23.40;46.70
73085;BME280;62974;49.460;10.892;2023-05-21T13:00:11;97418.88;;;23.37;45.55